Time;durP1;ratioP1;P1;durP2;ratioP2;P2;SDS_P1;SDS_P2;PMS_P1;PMS_P2;Temp;Humidity;BMP_temperature;BMP_pressure;BME280_temperature;BME280_humidity;BME280_pressure;Samples;Min_cycle;Max_cycle;Signal;HPM_P1;HPM_P2
2021/08/17 00:02:21;;;;;;;9.23;1.48;;;12.00;96.10;;;;;;5011140;28;20492;-84
2021/08/17 00:04:46;;;;;;;6.28;1.55;;;11.90;96.20;;;;;;5010530;28;20079;-84
2021/08/17 00:07:12;;;;;;;8.95;1.70;;;11.90;96.30;;;;;;5011701;28;20053;-84
2021/08/17 00:09:38;;;;;;;8.18;2.00;;;11.90;96.30;;;;;;5008008;28;20037;-84
2021/08/17 00:12:03;;;;;;;10.68;1.70;;;11.90;96.40;;;;;;5004758;28;20034;-84
2021/08/17 00:14:29;;;;;;;8.23;1.60;;;11.80;96.50;;;;;;5008149;28;20475;-84
2021/08/17 00:16:54;;;;;;;10.15;2.55;;;11.80;96.60;;;;;;4996145;28;20081;-84
2021/08/17 00:19:20;;;;;;;13.75;2.97;;;11.80;96.80;;;;;;5004657;28;20046;-84
2021/08/17 00:21:46;;;;;;;10.18;2.13;;;11.70;96.80;;;;;;4996509;28;20026;-84
2021/08/17 00:24:11;;;;;;;6.13;1.83;;;11.80;97.00;;;;;;5007817;28;20035;-85
2021/08/17 00:26:37;;;;;;;9.38;2.58;;;11.70;97.00;;;;;;5003385;28;20399;-85
2021/08/17 00:29:02;;;;;;;7.32;1.55;;;11.70;97.10;;;;;;5012051;28;20022;-84
2021/08/17 00:31:28;;;;;;;11.88;2.30;;;11.60;97.10;;;;;;5009013;28;20041;-84
2021/08/17 00:33:53;;;;;;;14.05;2.45;;;11.60;97.20;;;;;;5007904;28;20022;-84
2021/08/17 00:36:19;;;;;;;9.80;2.40;;;11.50;97.30;;;;;;5009480;28;20021;-84
2021/08/17 00:38:44;;;;;;;9.30;2.13;;;11.40;97.40;;;;;;5010260;28;20081;-84
2021/08/17 00:41:11;;;;;;;7.35;2.63;;;11.40;97.50;;;;;;5006918;28;20391;-84
2021/08/17 00:43:39;;;;;;;9.48;2.47;;;11.30;97.60;;;;;;5015195;28;20061;-84
2021/08/17 00:46:06;;;;;;;7.80;2.50;;;11.30;97.80;;;;;;5002761;28;20516;-84
2021/08/17 00:48:36;;;;;;;9.73;2.60;;;11.20;98.00;;;;;;5014608;28;20038;-84
2021/08/17 00:51:02;;;;;;;11.43;2.50;;;11.20;98.00;;;;;;5005098;28;20015;-83
2021/08/17 00:53:29;;;;;;;10.00;2.50;;;11.10;98.10;;;;;;5011918;28;20121;-84
2021/08/17 00:55:55;;;;;;;8.13;2.17;;;11.00;98.20;;;;;;5010202;28;20021;-83
2021/08/17 00:58:21;;;;;;;8.95;2.63;;;11.00;98.30;;;;;;5011520;28;20112;-83
2021/08/17 01:00:48;;;;;;;6.75;2.20;;;10.90;98.50;;;;;;5004549;28;20026;-83
2021/08/17 01:03:13;;;;;;;9.30;2.22;;;10.90;98.60;;;;;;5011961;28;20037;-84
2021/08/17 01:05:39;;;;;;;11.52;2.90;;;10.80;98.70;;;;;;5007920;28;20018;-83
2021/08/17 01:08:08;;;;;;;9.05;3.00;;;10.80;98.80;;;;;;5010444;28;20076;-83
2021/08/17 01:10:34;;;;;;;10.30;2.53;;;10.80;99.00;;;;;;5011371;28;20033;-83
2021/08/17 01:13:00;;;;;;;9.40;2.95;;;10.80;99.00;;;;;;4993776;28;20076;-83
2021/08/17 01:15:25;;;;;;;11.20;3.30;;;10.70;99.10;;;;;;5009074;28;20445;-83
2021/08/17 01:17:51;;;;;;;5.88;2.22;;;10.70;99.20;;;;;;5014096;28;20130;-83
2021/08/17 01:20:19;;;;;;;8.80;3.13;;;10.70;99.20;;;;;;5005925;28;20042;-83
2021/08/17 01:22:47;;;;;;;11.80;3.40;;;10.70;99.30;;;;;;5003501;28;20018;-83
2021/08/17 01:25:13;;;;;;;11.23;3.85;;;10.70;99.40;;;;;;5011101;28;20125;-84
2021/08/17 01:27:40;;;;;;;9.95;2.75;;;10.70;99.40;;;;;;5014005;28;20050;-83
2021/08/17 01:30:07;;;;;;;10.07;2.95;;;10.60;99.50;;;;;;5005401;28;20037;-83
2021/08/17 01:32:33;;;;;;;10.85;3.20;;;10.60;99.50;;;;;;5011763;28;20489;-83
2021/08/17 01:34:58;;;;;;;8.73;3.10;;;10.60;99.60;;;;;;5005072;28;20122;-84
2021/08/17 01:37:24;;;;;;;12.18;3.72;;;10.60;99.70;;;;;;5015317;28;20052;-83
2021/08/17 01:40:08;;;;;;;10.18;3.53;;;10.60;99.70;;;;;;5009176;28;20406;-83
2021/08/17 01:42:35;;;;;;;11.27;2.80;;;10.60;99.80;;;;;;5011708;28;20030;-83
2021/08/17 01:45:01;;;;;;;12.77;3.50;;;10.60;99.90;;;;;;5011723;28;20080;-83
2021/08/17 01:47:30;;;;;;;12.48;4.18;;;10.60;99.90;;;;;;5012687;28;20018;-83
2021/08/17 01:49:59;;;;;;;11.40;4.25;;;10.50;99.90;;;;;;5006493;28;20033;-83
2021/08/17 01:52:24;;;;;;;10.10;4.40;;;10.50;99.90;;;;;;4996694;28;20085;-83
2021/08/17 01:54:50;;;;;;;8.75;4.32;;;10.50;99.90;;;;;;5007564;28;20022;-83
2021/08/17 01:57:15;;;;;;;9.85;3.30;;;10.50;99.90;;;;;;5011468;28;20038;-83
2021/08/17 01:59:41;;;;;;;10.40;3.65;;;10.60;99.90;;;;;;5007477;28;20537;-83
2021/08/17 02:02:08;;;;;;;10.02;3.67;;;10.50;99.90;;;;;;5014463;28;20033;-83
2021/08/17 02:04:35;;;;;;;10.65;3.97;;;10.50;99.90;;;;;;5012341;28;20037;-83
2021/08/17 02:07:00;;;;;;;10.20;4.50;;;10.50;99.90;;;;;;5013307;28;20049;-83
2021/08/17 02:09:26;;;;;;;9.27;3.40;;;10.50;99.90;;;;;;5010711;28;20382;-83
2021/08/17 02:11:51;;;;;;;11.23;3.97;;;10.50;99.90;;;;;;4996063;28;20026;-83
2021/08/17 02:14:17;;;;;;;14.95;4.50;;;10.50;99.90;;;;;;5010391;28;20059;-83
2021/08/17 02:16:42;;;;;;;11.18;4.32;;;10.50;99.90;;;;;;5010403;28;20037;-83
2021/08/17 02:19:08;;;;;;;14.45;5.47;;;10.50;99.90;;;;;;5011841;28;20430;-83
2021/08/17 02:21:33;;;;;;;10.65;4.70;;;10.50;99.90;;;;;;5000582;28;20474;-83
2021/08/17 02:23:59;;;;;;;11.75;4.63;;;10.50;99.90;;;;;;5010680;28;20045;-83
2021/08/17 02:26:24;;;;;;;15.52;4.47;;;10.50;99.90;;;;;;5011007;28;20025;-83
2021/08/17 02:28:50;;;;;;;11.85;4.70;;;10.50;99.90;;;;;;5009715;28;20445;-83
2021/08/17 02:31:15;;;;;;;14.55;5.25;;;10.60;99.90;;;;;;5011135;28;20078;-82
2021/08/17 02:33:41;;;;;;;14.55;5.35;;;10.60;99.90;;;;;;5010869;28;20034;-83
2021/08/17 02:36:06;;;;;;;15.30;5.80;;;10.70;99.90;;;;;;5014784;28;20094;-83
2021/08/17 02:38:32;;;;;;;11.55;5.03;;;10.70;99.90;;;;;;5009015;28;20037;-82
2021/08/17 02:40:57;;;;;;;15.25;5.93;;;10.80;99.90;;;;;;5009451;28;20030;-83
2021/08/17 02:43:26;;;;;;;11.75;5.03;;;10.80;99.90;;;;;;5002956;28;20117;-83
2021/08/17 02:45:53;;;;;;;16.70;5.65;;;10.90;99.90;;;;;;5004897;28;20022;-83
2021/08/17 02:48:19;;;;;;;14.93;5.35;;;11.00;99.90;;;;;;5010577;28;20030;-83
2021/08/17 02:50:44;;;;;;;15.70;5.50;;;11.00;99.90;;;;;;5011630;28;20037;-84
2021/08/17 02:53:10;;;;;;;14.23;5.80;;;11.10;99.90;;;;;;5007026;28;20034;-83
2021/08/17 02:55:35;;;;;;;18.83;7.05;;;11.10;99.90;;;;;;5010868;28;20041;-83
2021/08/17 02:58:05;;;;;;;20.50;6.05;;;11.20;99.90;;;;;;5009675;28;20038;-83
2021/08/17 03:00:32;;;;;;;14.65;6.82;;;11.30;99.90;;;;;;5008460;28;20391;-83
2021/08/17 03:02:58;;;;;;;14.95;6.18;;;11.30;99.90;;;;;;5006851;28;20037;-83
2021/08/17 03:05:23;;;;;;;16.50;7.22;;;11.40;99.90;;;;;;5005534;28;20034;-83
2021/08/17 03:07:54;;;;;;;16.95;6.95;;;11.50;99.90;;;;;;5003910;28;20450;-83
2021/08/17 03:10:21;;;;;;;16.70;6.68;;;11.60;99.90;;;;;;5008588;28;20076;-83
2021/08/17 03:12:47;;;;;;;14.10;6.07;;;11.60;99.90;;;;;;5011006;28;20406;-82
2021/08/17 03:15:13;;;;;;;18.08;7.75;;;11.70;99.90;;;;;;5010614;28;20052;-82
2021/08/17 03:17:39;;;;;;;14.45;6.32;;;11.80;99.90;;;;;;5010578;28;20105;-83
2021/08/17 03:20:06;;;;;;;19.40;6.93;;;11.80;99.90;;;;;;5008194;28;20521;-83
2021/08/17 03:22:32;;;;;;;16.35;6.85;;;11.90;99.90;;;;;;5009112;28;20030;-83
2021/08/17 03:24:57;;;;;;;19.60;7.63;;;11.90;99.90;;;;;;5010155;28;20029;-83
2021/08/17 03:27:23;;;;;;;19.55;8.40;;;11.90;99.90;;;;;;5005567;28;20127;-83
2021/08/17 03:29:50;;;;;;;21.30;8.43;;;11.90;99.90;;;;;;5008266;28;20363;-83
2021/08/17 03:32:15;;;;;;;15.15;7.55;;;12.00;99.90;;;;;;5011561;28;20038;-83
2021/08/17 03:34:41;;;;;;;18.52;8.07;;;12.00;99.90;;;;;;4994152;28;20018;-83
2021/08/17 03:37:06;;;;;;;20.77;8.82;;;12.00;99.90;;;;;;5004435;28;20035;-82
2021/08/17 03:39:32;;;;;;;17.48;8.63;;;12.00;99.90;;;;;;5003113;28;20034;-83
2021/08/17 03:41:57;;;;;;;17.65;8.05;;;12.00;99.90;;;;;;5010049;28;20470;-83
2021/08/17 03:44:23;;;;;;;22.98;9.15;;;12.00;99.90;;;;;;5010564;28;20030;-83
2021/08/17 03:46:48;;;;;;;23.30;9.98;;;12.10;99.90;;;;;;5003323;28;20552;-83
2021/08/17 03:49:14;;;;;;;19.48;9.07;;;12.10;99.90;;;;;;5010315;28;20033;-82
2021/08/17 03:51:39;;;;;;;25.88;10.40;;;12.20;99.90;;;;;;5012152;28;20029;-83
2021/08/17 03:54:05;;;;;;;23.45;9.23;;;12.20;99.90;;;;;;5009932;28;20030;-83
2021/08/17 03:56:30;;;;;;;23.70;10.55;;;12.20;99.90;;;;;;5009869;28;20128;-83
2021/08/17 03:58:56;;;;;;;26.70;10.85;;;12.20;99.90;;;;;;5010794;28;20088;-83
2021/08/17 04:01:21;;;;;;;21.45;10.40;;;12.20;99.90;;;;;;5010555;28;20109;-83
2021/08/17 04:03:47;;;;;;;23.52;10.70;;;12.10;99.90;;;;;;5011349;28;20498;-83
2021/08/17 04:06:12;;;;;;;24.23;10.82;;;12.10;99.90;;;;;;5008068;28;20041;-83
2021/08/17 04:08:38;;;;;;;23.77;10.57;;;12.10;99.90;;;;;;5005325;28;20068;-83
2021/08/17 04:11:04;;;;;;;26.33;10.40;;;12.00;99.90;;;;;;5005891;28;20117;-83
2021/08/17 04:13:29;;;;;;;22.55;10.18;;;12.00;99.90;;;;;;5006729;28;20041;-83
2021/08/17 04:15:55;;;;;;;22.90;9.68;;;12.00;99.90;;;;;;5013997;28;20025;-82
2021/08/17 04:18:20;;;;;;;21.92;10.50;;;12.00;99.90;;;;;;5009409;28;20038;-83
2021/08/17 04:20:46;;;;;;;22.02;10.80;;;12.00;99.90;;;;;;5005904;28;20117;-83
2021/08/17 04:23:11;;;;;;;30.65;10.90;;;11.90;99.90;;;;;;5007102;28;20062;-83
2021/08/17 04:25:37;;;;;;;28.33;11.05;;;11.90;99.90;;;;;;5001518;28;20072;-83
2021/08/17 04:28:03;;;;;;;25.30;11.68;;;11.90;99.90;;;;;;5011970;28;20045;-83
2021/08/17 04:30:28;;;;;;;29.60;13.60;;;11.80;99.90;;;;;;5010739;28;20028;-83
2021/08/17 04:32:54;;;;;;;26.95;11.77;;;11.80;99.90;;;;;;5010543;28;20032;-83
2021/08/17 04:35:19;;;;;;;31.45;13.98;;;11.70;99.90;;;;;;5010408;28;20463;-83
2021/08/17 04:37:46;;;;;;;33.45;13.90;;;11.70;99.90;;;;;;5014458;28;20056;-82
2021/08/17 04:40:13;;;;;;;36.58;14.23;;;11.70;99.90;;;;;;5016522;28;20022;-83
2021/08/17 04:42:38;;;;;;;36.50;15.15;;;11.70;99.90;;;;;;5015279;28;20034;-83
2021/08/17 04:45:04;;;;;;;40.58;16.33;;;11.70;99.90;;;;;;5015286;28;20476;-83
2021/08/17 04:47:30;;;;;;;46.35;16.55;;;11.70;99.90;;;;;;5016212;28;20486;-83
2021/08/17 04:49:55;;;;;;;41.95;16.52;;;11.80;99.90;;;;;;5012744;28;20076;-83
2021/08/17 04:52:21;;;;;;;40.83;16.88;;;11.80;99.90;;;;;;5012962;28;20061;-83
2021/08/17 04:54:47;;;;;;;48.22;18.70;;;11.90;99.90;;;;;;5008600;28;20029;-84
2021/08/17 04:57:13;;;;;;;45.42;18.23;;;11.90;99.90;;;;;;5011420;28;20037;-84
2021/08/17 04:59:39;;;;;;;47.00;18.02;;;11.90;99.90;;;;;;5007625;28;20025;-84
2021/08/17 05:02:05;;;;;;;50.45;18.88;;;11.90;99.90;;;;;;5008153;28;20040;-84
2021/08/17 05:04:30;;;;;;;55.00;20.65;;;12.00;99.90;;;;;;5005344;28;20094;-83
2021/08/17 05:06:56;;;;;;;53.55;20.25;;;12.10;99.90;;;;;;5010675;28;20499;-84
2021/08/17 05:09:22;;;;;;;63.63;20.27;;;12.10;99.90;;;;;;5007338;28;20023;-84
2021/08/17 05:11:48;;;;;;;51.20;20.35;;;12.20;99.90;;;;;;5012989;28;20038;-84
2021/08/17 05:14:13;;;;;;;55.88;19.98;;;12.20;99.90;;;;;;5011923;28;20076;-84
2021/08/17 05:16:39;;;;;;;58.88;20.70;;;12.30;99.90;;;;;;5005956;28;20026;-84
2021/08/17 05:19:04;;;;;;;62.85;22.48;;;12.40;99.90;;;;;;5000066;28;20037;-84
2021/08/17 05:21:30;;;;;;;55.40;21.75;;;12.50;99.90;;;;;;5007971;28;20037;-83
2021/08/17 05:23:58;;;;;;;58.45;22.08;;;12.60;99.90;;;;;;5011380;28;20113;-83
2021/08/17 05:26:24;;;;;;;64.13;24.02;;;12.60;99.90;;;;;;5005082;28;20030;-84
2021/08/17 05:28:50;;;;;;;58.95;22.30;;;12.70;99.90;;;;;;5006231;28;20092;-84
2021/08/17 05:31:15;;;;;;;68.45;23.45;;;12.80;99.90;;;;;;5006231;28;20053;-84
2021/08/17 05:33:41;;;;;;;75.53;24.23;;;12.90;99.90;;;;;;5010201;28;20041;-84
2021/08/17 05:36:06;;;;;;;59.78;23.02;;;13.00;99.90;;;;;;5012211;28;20471;-83
2021/08/17 05:38:32;;;;;;;64.38;23.70;;;13.10;99.90;;;;;;5008584;28;20041;-83
2021/08/17 05:40:58;;;;;;;61.10;22.27;;;13.20;99.90;;;;;;5006595;28;20034;-84
2021/08/17 05:43:23;;;;;;;59.78;23.67;;;13.30;99.90;;;;;;5011497;28;20036;-84
2021/08/17 05:45:49;;;;;;;62.25;23.48;;;13.40;99.90;;;;;;5009357;28;20022;-84
2021/08/17 05:48:14;;;;;;;62.30;25.52;;;13.40;99.90;;;;;;5004214;28;20124;-84
2021/08/17 05:50:40;;;;;;;59.08;24.17;;;13.50;99.90;;;;;;5010980;28;20113;-83
2021/08/17 05:53:05;;;;;;;56.28;23.20;;;13.60;99.90;;;;;;5015786;28;20026;-83
2021/08/17 05:55:32;;;;;;;56.35;22.88;;;13.70;99.90;;;;;;5003549;28;20027;-84
2021/08/17 05:58:00;;;;;;;59.30;23.17;;;13.80;99.90;;;;;;5000181;28;20406;-84
2021/08/17 06:00:26;;;;;;;62.85;23.33;;;13.90;99.90;;;;;;5010337;28;20033;-83
2021/08/17 06:02:52;;;;;;;64.90;24.40;;;14.00;99.90;;;;;;5003291;28;20053;-83
2021/08/17 06:05:18;;;;;;;61.30;23.88;;;14.00;99.90;;;;;;5008278;28;20081;-84
2021/08/17 06:07:47;;;;;;;61.55;23.52;;;14.10;99.90;;;;;;5000708;28;20456;-84
2021/08/17 06:10:13;;;;;;;57.28;22.65;;;14.10;99.90;;;;;;5003257;28;20045;-84
2021/08/17 06:12:38;;;;;;;59.55;22.90;;;14.10;99.90;;;;;;5007587;28;20026;-83
2021/08/17 06:15:05;;;;;;;61.40;24.17;;;14.20;99.90;;;;;;5013662;28;20030;-84
2021/08/17 06:17:30;;;;;;;55.75;23.17;;;14.20;99.90;;;;;;5012574;28;20501;-84
2021/08/17 06:19:56;;;;;;;57.10;22.00;;;14.20;99.90;;;;;;5012717;28;20056;-84
2021/08/17 06:22:21;;;;;;;58.00;23.50;;;14.30;99.90;;;;;;4998434;28;20084;-84
2021/08/17 06:24:47;;;;;;;61.38;23.13;;;14.30;99.90;;;;;;5012612;28;20022;-84
2021/08/17 06:27:12;;;;;;;55.72;23.83;;;14.30;99.90;;;;;;5008893;28;20441;-84
2021/08/17 06:29:38;;;;;;;52.92;21.73;;;14.40;99.90;;;;;;5007556;28;20030;-84
2021/08/17 06:32:04;;;;;;;52.20;21.92;;;14.50;99.90;;;;;;5013752;28;20033;-85
2021/08/17 06:34:29;;;;;;;54.28;20.70;;;14.60;99.90;;;;;;5011052;28;20022;-85
2021/08/17 06:36:55;;;;;;;48.45;20.15;;;14.60;99.90;;;;;;5011236;28;20025;-85
2021/08/17 06:39:20;;;;;;;44.08;18.25;;;14.60;99.90;;;;;;5006783;28;20034;-84
2021/08/17 06:41:47;;;;;;;54.97;21.38;;;14.70;99.90;;;;;;5012265;28;20056;-84
2021/08/17 06:44:13;;;;;;;49.80;20.60;;;14.70;99.90;;;;;;5002540;28;20034;-84
2021/08/17 06:46:38;;;;;;;53.17;21.23;;;14.70;99.90;;;;;;5001366;28;20026;-84
2021/08/17 06:49:04;;;;;;;49.83;19.00;;;14.70;99.90;;;;;;5013075;28;20038;-84
2021/08/17 06:51:29;;;;;;;53.15;20.27;;;14.60;99.90;;;;;;5009249;28;20017;-84
2021/08/17 06:53:55;;;;;;;48.40;19.83;;;14.70;99.90;;;;;;5012427;28;21706;-85
2021/08/17 06:56:20;;;;;;;49.03;19.13;;;14.70;99.90;;;;;;5011883;28;20116;-85
2021/08/17 06:58:46;;;;;;;48.83;18.75;;;14.70;99.90;;;;;;5011119;28;20096;-85
2021/08/17 07:01:11;;;;;;;47.55;18.92;;;14.80;99.90;;;;;;5008348;28;20022;-84
2021/08/17 07:03:37;;;;;;;48.63;19.20;;;14.90;99.90;;;;;;5010601;28;20037;-85
2021/08/17 07:06:03;;;;;;;47.50;19.55;;;14.90;99.90;;;;;;4999056;28;20050;-85
2021/08/17 07:08:28;;;;;;;46.28;18.75;;;14.90;99.90;;;;;;5009956;28;20452;-85
2021/08/17 07:10:54;;;;;;;46.30;19.13;;;15.00;99.90;;;;;;5009354;28;20030;-84
2021/08/17 07:13:20;;;;;;;45.17;18.88;;;15.00;99.90;;;;;;5013605;28;20030;-84
2021/08/17 07:15:46;;;;;;;45.25;17.90;;;15.10;99.90;;;;;;5011324;28;20029;-84
2021/08/17 07:18:12;;;;;;;43.95;18.67;;;15.20;99.90;;;;;;5013282;28;20490;-84
2021/08/17 07:20:40;;;;;;;40.85;17.45;;;15.20;99.90;;;;;;5005125;28;20022;-84
2021/08/17 07:23:05;;;;;;;46.33;18.15;;;15.30;99.90;;;;;;5001776;28;20029;-85
2021/08/17 07:25:31;;;;;;;48.28;17.85;;;15.40;99.90;;;;;;5012421;28;20037;-84
2021/08/17 07:27:56;;;;;;;41.45;18.65;;;15.50;99.90;;;;;;5012812;28;20021;-84
2021/08/17 07:30:22;;;;;;;40.70;18.25;;;15.60;99.90;;;;;;5001637;28;20022;-85
2021/08/17 07:32:48;;;;;;;38.85;16.40;;;15.70;99.90;;;;;;5012507;28;20033;-84
2021/08/17 07:35:17;;;;;;;37.92;16.75;;;15.80;99.90;;;;;;5009609;28;20029;-84
2021/08/17 07:37:45;;;;;;;37.80;15.43;;;15.90;99.90;;;;;;5010332;28;20037;-84
2021/08/17 07:40:11;;;;;;;34.13;15.20;;;15.90;99.90;;;;;;5005414;28;20068;-84
2021/08/17 07:42:37;;;;;;;37.85;14.90;;;16.00;99.90;;;;;;5010083;28;20030;-84
2021/08/17 07:45:03;;;;;;;35.08;14.88;;;16.20;99.90;;;;;;5007746;28;20032;-85
2021/08/17 07:47:30;;;;;;;35.35;14.43;;;16.30;99.90;;;;;;5011120;28;20552;-84
2021/08/17 07:49:55;;;;;;;31.85;13.88;;;16.50;99.90;;;;;;5009876;28;20037;-84
2021/08/17 07:52:21;;;;;;;29.58;12.13;;;16.60;99.90;;;;;;5011840;28;20033;-84
2021/08/17 07:54:47;;;;;;;28.70;12.68;;;16.70;99.90;;;;;;5011549;28;20018;-87
2021/08/17 07:57:12;;;;;;;26.63;12.45;;;16.80;99.90;;;;;;5006179;28;20379;-84
2021/08/17 07:59:38;;;;;;;28.67;13.13;;;17.00;99.90;;;;;;4995033;28;20490;-84
2021/08/17 08:02:04;;;;;;;28.77;12.15;;;17.10;99.70;;;;;;5011237;28;20018;-84
2021/08/17 08:04:29;;;;;;;26.40;11.98;;;17.10;99.70;;;;;;5011050;28;20026;-84
2021/08/17 08:06:55;;;;;;;29.13;12.55;;;17.10;98.90;;;;;;5011116;28;20128;-84
2021/08/17 08:09:20;;;;;;;26.27;11.75;;;17.10;98.80;;;;;;5010563;28;20470;-86
2021/08/17 08:11:46;;;;;;;29.67;11.73;;;17.10;98.60;;;;;;5010470;28;20078;-83
2021/08/17 08:14:12;;;;;;;26.20;11.30;;;17.10;98.40;;;;;;5010678;28;20037;-83
2021/08/17 08:16:37;;;;;;;22.30;10.98;;;17.20;98.20;;;;;;5013205;28;20109;-84
2021/08/17 08:19:04;;;;;;;27.58;11.63;;;17.30;98.10;;;;;;5005959;28;20645;-84
2021/08/17 08:21:32;;;;;;;26.90;11.95;;;17.30;97.80;;;;;;5010646;28;20033;-84
2021/08/17 08:23:58;;;;;;;27.30;11.30;;;17.40;97.90;;;;;;5012947;28;20470;-84
2021/08/17 08:26:23;;;;;;;25.10;12.57;;;17.40;97.60;;;;;;5011592;28;20040;-84
2021/08/17 08:28:49;;;;;;;25.25;12.02;;;17.40;97.60;;;;;;5006428;28;20050;-83
2021/08/17 08:31:14;;;;;;;22.88;11.43;;;17.30;97.20;;;;;;5004425;28;20418;-84
2021/08/17 08:33:40;;;;;;;20.23;10.90;;;17.20;97.10;;;;;;5013046;28;20112;-84
2021/08/17 08:36:08;;;;;;;24.48;11.88;;;17.10;97.00;;;;;;5012494;28;20485;-84
2021/08/17 08:38:34;;;;;;;26.17;10.68;;;17.10;97.10;;;;;;5005319;28;20442;-84
2021/08/17 08:40:59;;;;;;;28.27;12.82;;;17.10;97.20;;;;;;5006839;28;20025;-84
2021/08/17 08:43:25;;;;;;;26.38;12.05;;;17.20;97.10;;;;;;5011291;28;20034;-83
2021/08/17 08:45:50;;;;;;;23.70;10.70;;;17.10;97.00;;;;;;5011093;28;20022;-84
2021/08/17 08:48:19;;;;;;;24.95;11.43;;;17.10;97.00;;;;;;5008132;28;20073;-83
2021/08/17 08:50:45;;;;;;;23.02;10.43;;;17.10;97.10;;;;;;4999280;28;20109;-84
2021/08/17 08:53:12;;;;;;;25.02;10.82;;;17.20;97.10;;;;;;5005270;28;20038;-84
2021/08/17 08:55:38;;;;;;;19.98;10.52;;;17.30;96.90;;;;;;5010262;28;20521;-84
2021/08/17 08:58:04;;;;;;;23.20;11.07;;;17.40;96.70;;;;;;5011027;28;20042;-84
2021/08/17 09:00:29;;;;;;;21.50;10.70;;;17.50;96.50;;;;;;5012671;28;20037;-85
2021/08/17 09:02:55;;;;;;;18.05;8.85;;;17.60;96.30;;;;;;5013935;28;20026;-85
2021/08/17 09:05:21;;;;;;;24.83;11.57;;;17.80;96.10;;;;;;4999859;28;20478;-85
2021/08/17 09:07:47;;;;;;;21.83;10.20;;;18.00;95.50;;;;;;5005799;28;20084;-84
2021/08/17 09:10:14;;;;;;;19.75;8.88;;;17.90;95.30;;;;;;5011710;28;20447;-86
2021/08/17 09:12:43;;;;;;;16.42;8.88;;;18.00;95.10;;;;;;5014479;28;20034;-85
2021/08/17 09:15:21;;;;;;;18.27;9.13;;;17.90;95.00;;;;;;5017239;28;20026;-84
2021/08/17 09:18:05;;;;;;;19.23;9.13;;;17.90;94.90;;;;;;5003819;28;20041;-86
2021/08/17 09:20:33;;;;;;;19.70;9.00;;;18.00;95.00;;;;;;4997286;28;20446;-86
2021/08/17 09:23:21;;;;;;;18.27;9.10;;;18.00;94.80;;;;;;5003579;28;20557;-85
2021/08/17 09:25:47;;;;;;;17.63;7.85;;;18.10;94.80;;;;;;5017172;28;20049;-84
2021/08/17 09:28:27;;;;;;;18.52;8.90;;;18.00;94.60;;;;;;5014487;28;20482;-86
2021/08/17 09:30:53;;;;;;;16.48;7.70;;;18.00;94.60;;;;;;5016280;28;20183;-85
2021/08/17 09:33:18;;;;;;;16.45;8.27;;;18.00;94.60;;;;;;5011423;28;20121;-85
2021/08/17 09:35:44;;;;;;;17.08;8.48;;;18.00;94.30;;;;;;5014049;28;20445;-85
2021/08/17 09:38:13;;;;;;;20.58;9.45;;;17.90;94.10;;;;;;5011714;28;20065;-85
2021/08/17 09:40:39;;;;;;;19.45;8.35;;;17.90;94.10;;;;;;5004602;28;20556;-84
2021/08/17 09:43:16;;;;;;;20.65;8.63;;;17.80;94.20;;;;;;5009451;28;20145;-85
2021/08/17 09:45:42;;;;;;;15.02;8.15;;;17.80;94.20;;;;;;5014721;28;20037;-85
2021/08/17 09:48:11;;;;;;;16.80;8.88;;;17.60;94.50;;;;;;5007238;28;20030;-86
2021/08/17 09:50:41;;;;;;;18.88;9.18;;;17.60;94.40;;;;;;5011773;28;20029;-84
2021/08/17 09:53:19;;;;;;;16.45;8.02;;;17.50;94.50;;;;;;5013281;28;20144;-86
2021/08/17 09:55:51;;;;;;;19.92;8.95;;;17.50;94.60;;;;;;5014345;28;20032;-85
2021/08/17 09:58:23;;;;;;;15.60;8.25;;;17.50;94.70;;;;;;5007305;28;20387;-85
2021/08/17 10:00:50;;;;;;;21.42;8.35;;;17.50;94.60;;;;;;5010577;28;20560;-85
2021/08/17 10:03:17;;;;;;;15.43;7.70;;;17.40;94.60;;;;;;5015461;28;20030;-85
2021/08/17 10:05:43;;;;;;;20.33;8.45;;;17.30;94.70;;;;;;5011367;28;20037;-85
2021/08/17 10:08:14;;;;;;;17.02;8.55;;;17.40;94.80;;;;;;5014605;28;20073;-85
2021/08/17 10:10:45;;;;;;;17.10;8.60;;;17.40;94.80;;;;;;5014618;28;20026;-85
2021/08/17 10:13:16;;;;;;;13.85;6.93;;;17.40;94.80;;;;;;5014571;28;20108;-85
2021/08/17 10:15:43;;;;;;;15.95;7.55;;;17.30;94.50;;;;;;5015282;28;20028;-85
2021/08/17 10:18:10;;;;;;;16.63;8.30;;;17.30;94.60;;;;;;5014818;28;20046;-85
2021/08/17 10:20:42;;;;;;;13.98;7.63;;;17.20;94.70;;;;;;5014291;28;20033;-85
2021/08/17 10:23:08;;;;;;;14.87;6.70;;;17.20;94.60;;;;;;5013848;28;20046;-85
2021/08/17 10:26:03;;;;;;;11.65;6.78;;;17.20;94.40;;;;;;5013427;28;20084;-84
2021/08/17 10:28:40;;;;;;;14.75;6.05;;;17.20;94.40;;;;;;4993941;28;20030;-85
2021/08/17 10:31:12;;;;;;;8.88;5.13;;;17.20;94.40;;;;;;5014759;28;20498;-84
2021/08/17 10:33:53;;;;;;;10.48;4.75;;;17.20;94.10;;;;;;5013396;28;20033;-86
2021/08/17 10:37:17;;;;;;;10.52;4.95;;;17.10;94.20;;;;;;5013745;28;20034;-85
2021/08/17 10:39:42;;;;;;;9.75;5.13;;;17.00;94.10;;;;;;4935792;29;20036;-85
2021/08/17 10:42:27;;;;;;;10.32;4.45;;;17.00;94.30;;;;;;4920488;29;20020;-86
2021/08/17 10:45:13;;;;;;;9.27;3.70;;;17.00;94.20;;;;;;4973826;28;20045;-84
2021/08/17 10:47:39;;;;;;;11.43;4.40;;;17.10;94.10;;;;;;4999952;28;20470;-85
2021/08/17 10:50:05;;;;;;;9.20;4.13;;;17.20;93.80;;;;;;5013504;28;20053;-85
2021/08/17 10:52:37;;;;;;;13.93;4.03;;;17.20;93.60;;;;;;5011822;28;20030;-85
2021/08/17 10:55:33;;;;;;;9.47;4.07;;;17.20;93.60;;;;;;5013525;28;20404;-86
2021/08/17 10:58:05;;;;;;;8.32;3.63;;;17.20;93.40;;;;;;5012663;28;20037;-85
2021/08/17 11:00:45;;;;;;;8.23;3.73;;;17.20;93.50;;;;;;5012191;28;20474;-85
2021/08/17 11:03:11;;;;;;;6.25;3.42;;;17.30;93.60;;;;;;5012457;28;20150;-85
2021/08/17 11:05:53;;;;;;;7.75;3.15;;;17.30;93.30;;;;;;5011411;28;20064;-85
2021/08/17 11:08:30;;;;;;;9.53;4.13;;;17.30;93.20;;;;;;5011384;28;20046;-85
2021/08/17 11:11:01;;;;;;;15.00;3.35;;;17.30;93.10;;;;;;5013767;28;20482;-84
2021/08/17 11:13:27;;;;;;;9.88;3.58;;;17.20;93.20;;;;;;5014359;28;20029;-84
2021/08/17 11:16:09;;;;;;;9.00;2.95;;;17.20;93.20;;;;;;5013056;28;20393;-85
2021/08/17 11:18:52;;;;;;;7.30;2.85;;;17.20;93.30;;;;;;5010275;28;20040;-86
2021/08/17 11:21:31;;;;;;;6.55;3.00;;;17.20;93.40;;;;;;5011170;28;20045;-83
2021/08/17 11:24:20;;;;;;;7.38;3.30;;;17.20;93.40;;;;;;5013610;28;20075;-83
2021/08/17 11:26:59;;;;;;;7.05;3.28;;;17.10;93.40;;;;;;5012471;28;20053;-83
2021/08/17 11:29:47;;;;;;;6.03;3.88;;;17.10;93.50;;;;;;5006432;28;20124;-83
2021/08/17 11:32:25;;;;;;;9.40;4.90;;;17.10;93.60;;;;;;5008928;28;20022;-82
2021/08/17 11:34:51;;;;;;;11.63;4.50;;;17.00;93.80;;;;;;5014771;28;20049;-83
2021/08/17 11:37:17;;;;;;;9.20;5.70;;;17.00;93.90;;;;;;5012759;28;20504;-84
2021/08/17 11:39:46;;;;;;;11.43;5.20;;;16.90;94.20;;;;;;5004096;28;20080;-84
2021/08/17 11:42:16;;;;;;;14.35;5.57;;;16.80;94.50;;;;;;5010968;28;20349;-84
2021/08/17 11:44:43;;;;;;;11.20;5.30;;;16.70;94.80;;;;;;5010851;28;20026;-84
2021/08/17 11:47:11;;;;;;;12.23;5.82;;;16.60;95.10;;;;;;5012030;28;20026;-84
2021/08/17 11:49:37;;;;;;;13.32;5.78;;;16.50;95.60;;;;;;5012300;28;20030;-83
2021/08/17 11:52:11;;;;;;;11.90;6.38;;;16.50;95.90;;;;;;5013528;28;20030;-84
2021/08/17 11:54:52;;;;;;;13.57;6.20;;;16.40;96.20;;;;;;5012322;28;20048;-83
2021/08/17 11:57:29;;;;;;;14.68;6.97;;;16.30;96.40;;;;;;5010112;28;20038;-83
2021/08/17 11:59:56;;;;;;;14.32;6.30;;;16.20;96.80;;;;;;5012756;28;20367;-83
2021/08/17 12:02:26;;;;;;;12.40;6.47;;;16.10;97.00;;;;;;5011664;28;20030;-83
2021/08/17 12:04:58;;;;;;;13.98;5.72;;;16.00;97.40;;;;;;5012629;28;20033;-84
2021/08/17 12:07:27;;;;;;;11.60;5.83;;;15.90;97.80;;;;;;5010574;28;20379;-83
2021/08/17 12:09:53;;;;;;;11.27;5.47;;;15.80;98.00;;;;;;5004408;28;20536;-84
2021/08/17 12:12:40;;;;;;;12.43;6.22;;;15.80;98.30;;;;;;5012802;28;20026;-83
2021/08/17 12:15:11;;;;;;;11.85;6.40;;;15.80;98.50;;;;;;5010290;28;20079;-84
2021/08/17 12:17:37;;;;;;;12.68;7.15;;;15.80;98.80;;;;;;5010499;28;20037;-84
2021/08/17 12:20:05;;;;;;;12.38;6.88;;;15.80;98.80;;;;;;5011745;28;20041;-84
2021/08/17 12:22:32;;;;;;;12.93;7.30;;;15.80;98.90;;;;;;4999532;28;20030;-83
2021/08/17 12:24:58;;;;;;;11.55;6.93;;;15.90;99.00;;;;;;5005975;28;20026;-84
2021/08/17 12:27:28;;;;;;;12.32;6.75;;;15.90;99.10;;;;;;5010529;28;20437;-85
2021/08/17 12:29:54;;;;;;;10.45;6.60;;;15.80;99.20;;;;;;4991854;28;20031;-84
2021/08/17 12:32:28;;;;;;;13.82;7.85;;;15.80;99.30;;;;;;5000454;28;20038;-84
2021/08/17 12:35:01;;;;;;;14.68;8.23;;;15.80;99.40;;;;;;5006948;28;20379;-84
2021/08/17 12:37:30;;;;;;;16.83;8.88;;;15.80;99.60;;;;;;4997446;28;20041;-84